createdAt,value
2018-05-14T00:01:52.554Z,12.00
2018-05-14T00:04:20.060Z,12.00
2018-05-14T00:06:47.526Z,12.00
2018-05-14T00:09:16.112Z,11.80
2018-05-14T00:11:43.618Z,11.80
2018-05-14T00:14:11.123Z,11.90
2018-05-14T00:16:38.899Z,11.90
2018-05-14T00:19:07.150Z,11.80
2018-05-14T00:21:34.668Z,11.80
2018-05-14T00:24:02.430Z,11.80
2018-05-14T00:26:29.902Z,11.80
2018-05-14T00:28:57.380Z,11.80
2018-05-14T00:31:25.169Z,11.80
2018-05-14T00:33:53.427Z,11.90
2018-05-14T00:36:20.911Z,11.80
2018-05-14T00:38:48.694Z,11.80
2018-05-14T00:41:16.192Z,11.80
2018-05-14T00:43:43.698Z,11.80
2018-05-14T00:46:12.259Z,11.80
2018-05-14T00:48:39.739Z,11.70
2018-05-14T00:51:07.217Z,11.70
2018-05-14T00:53:34.704Z,11.70
2018-05-14T00:56:02.202Z,11.80
2018-05-14T00:58:30.438Z,11.70
2018-05-14T01:00:58.228Z,11.70
2018-05-14T01:03:26.472Z,11.70
2018-05-14T01:05:53.938Z,11.70
2018-05-14T01:08:21.733Z,11.60
2018-05-14T01:10:49.996Z,11.60
2018-05-14T01:13:17.474Z,11.60
2018-05-14T01:15:45.266Z,11.60
2018-05-14T01:18:12.736Z,11.60
2018-05-14T01:20:40.226Z,11.60
2018-05-14T01:23:08.779Z,11.50
2018-05-14T01:25:36.251Z,11.50
2018-05-14T01:28:03.763Z,11.50
2018-05-14T01:30:32.322Z,11.60
2018-05-14T01:33:00.950Z,11.60
2018-05-14T01:35:28.523Z,11.60
2018-05-14T01:37:56.279Z,11.70
2018-05-14T01:40:24.582Z,11.70
2018-05-14T01:42:52.932Z,11.60
2018-05-14T01:45:21.379Z,11.60
2018-05-14T01:47:48.926Z,11.70
2018-05-14T01:50:16.343Z,11.80
2018-05-14T01:52:44.101Z,11.80
2018-05-14T01:55:11.659Z,11.80
2018-05-14T01:57:39.934Z,11.50
2018-05-14T02:00:07.772Z,11.50
2018-05-14T02:02:35.241Z,11.60
2018-05-14T02:05:02.724Z,11.70
2018-05-14T02:07:30.234Z,11.70
2018-05-14T02:09:57.726Z,11.70
2018-05-14T02:12:25.194Z,11.70
2018-05-14T02:14:52.946Z,11.70
2018-05-14T02:17:20.427Z,11.70
2018-05-14T02:19:47.898Z,11.60
2018-05-14T02:22:16.448Z,11.60
2018-05-14T02:24:43.941Z,11.60
2018-05-14T02:27:12.179Z,11.70
2018-05-14T02:29:39.962Z,11.70
2018-05-14T02:32:07.429Z,11.60
2018-05-14T02:34:34.929Z,11.60
2018-05-14T02:37:02.683Z,11.50
2018-05-14T02:39:30.165Z,11.50
2018-05-14T02:41:57.646Z,11.60
2018-05-14T02:44:25.418Z,11.60
2018-05-14T02:46:52.939Z,11.50
2018-05-14T02:49:20.406Z,11.50
2018-05-14T02:51:48.255Z,11.50
2018-05-14T02:54:15.739Z,11.50
2018-05-14T02:56:43.230Z,11.50
2018-05-14T02:59:11.747Z,11.40
2018-05-14T03:01:39.233Z,11.40
2018-05-14T03:04:06.711Z,11.40
2018-05-14T03:06:35.229Z,11.40
2018-05-14T03:09:02.707Z,11.40
2018-05-14T03:11:30.198Z,11.40
2018-05-14T03:13:58.006Z,11.40
2018-05-14T03:16:25.471Z,11.40
2018-05-14T03:18:52.976Z,11.40
2018-05-14T03:21:20.758Z,11.40
2018-05-14T03:23:49.000Z,11.40
2018-05-14T03:26:16.486Z,11.40
2018-05-14T03:28:44.266Z,11.40
2018-05-14T03:31:11.730Z,11.40
2018-05-14T03:33:39.242Z,11.50
2018-05-14T03:36:09.984Z,11.40
2018-05-14T03:38:37.459Z,11.40
2018-05-14T03:41:04.927Z,11.40
2018-05-14T03:43:33.494Z,11.50
2018-05-14T03:46:00.958Z,11.40
2018-05-14T03:48:29.206Z,11.40
2018-05-14T03:50:56.974Z,11.40
2018-05-14T03:53:24.467Z,11.40
2018-05-14T03:55:52.779Z,11.40
2018-05-14T03:58:32.346Z,11.40
2018-05-14T04:14:30.342Z,11.40
2018-05-14T04:16:58.236Z,11.40
2018-05-14T04:19:25.731Z,11.40
2018-05-14T04:21:53.662Z,11.40
2018-05-14T04:24:21.261Z,11.40
2018-05-14T04:26:49.432Z,11.50
2018-05-14T04:29:17.261Z,11.40
2018-05-14T04:31:44.774Z,11.50
2018-05-14T04:34:12.293Z,11.50
2018-05-14T04:36:40.043Z,11.50
2018-05-14T04:39:07.554Z,11.60
2018-05-14T04:41:35.069Z,11.60
2018-05-14T04:44:02.886Z,11.60
2018-05-14T04:46:31.153Z,11.50
2018-05-14T04:48:59.428Z,11.50
2018-05-14T04:51:26.918Z,11.50
2018-05-14T04:53:54.400Z,11.60
2018-05-14T04:56:21.895Z,11.60
2018-05-14T04:58:50.502Z,11.60
2018-05-14T05:01:17.983Z,11.60
2018-05-14T05:03:45.469Z,11.60
2018-05-14T05:06:13.515Z,11.70
2018-05-14T05:08:41.036Z,11.70
2018-05-14T05:11:09.274Z,11.80
2018-05-14T05:13:36.782Z,11.80
2018-05-14T05:16:04.267Z,11.80
2018-05-14T05:18:31.754Z,11.90
2018-05-14T05:20:59.680Z,11.90
2018-05-14T05:23:27.262Z,11.90
2018-05-14T05:25:54.746Z,11.90
2018-05-14T05:28:22.714Z,12.00
2018-05-14T05:30:50.908Z,12.00
2018-05-14T05:33:18.636Z,12.00
2018-05-14T05:35:46.535Z,12.10
2018-05-14T05:38:14.032Z,12.10
2018-05-14T05:40:41.506Z,12.20
2018-05-14T05:43:09.545Z,12.10
2018-05-14T05:45:37.034Z,12.10
2018-05-14T05:48:04.522Z,12.10
2018-05-14T05:50:32.402Z,12.10
2018-05-14T05:53:00.696Z,12.30
2018-05-14T05:55:28.193Z,12.20
2018-05-14T05:57:56.108Z,12.20
2018-05-14T06:00:24.339Z,12.20
2018-05-14T06:02:51.811Z,12.20
2018-05-14T06:05:19.609Z,12.30
2018-05-14T06:07:47.883Z,12.40
2018-05-14T06:10:16.149Z,12.40
2018-05-14T06:12:44.070Z,12.40
2018-05-14T06:15:11.582Z,12.40
2018-05-14T06:17:39.823Z,12.40
2018-05-14T06:20:07.578Z,12.40
2018-05-14T06:22:35.111Z,12.50
2018-05-14T06:25:02.595Z,12.50
2018-05-14T06:27:30.390Z,12.50
2018-05-14T06:29:58.646Z,12.50
2018-05-14T06:32:26.958Z,12.60
2018-05-14T06:34:54.731Z,12.60
2018-05-14T06:37:22.237Z,12.60
2018-05-14T06:39:49.736Z,12.70
2018-05-14T06:42:18.278Z,12.70
2018-05-14T06:44:45.917Z,12.70
2018-05-14T06:47:13.467Z,12.60
2018-05-14T06:49:40.971Z,12.70
2018-05-14T06:52:08.451Z,12.70
2018-05-14T06:54:36.690Z,12.80
2018-05-14T06:57:04.333Z,12.80
2018-05-14T06:59:31.841Z,12.80
2018-05-14T07:02:00.082Z,12.90
2018-05-14T07:04:27.570Z,12.90
2018-05-14T07:06:55.818Z,13.00
2018-05-14T07:09:23.350Z,13.00
2018-05-14T07:11:50.866Z,13.10
2018-05-14T07:14:18.370Z,13.00
2018-05-14T07:16:45.954Z,13.10
2018-05-14T07:19:14.387Z,13.10
2018-05-14T07:21:41.871Z,13.20
2018-05-14T07:24:09.379Z,13.30
2018-05-14T07:26:36.921Z,13.40
2018-05-14T07:29:05.226Z,13.70
2018-05-14T07:31:32.810Z,13.70
2018-05-14T07:34:00.338Z,13.70
2018-05-14T07:36:27.858Z,14.10
2018-05-14T07:38:55.333Z,14.10
2018-05-14T07:41:23.594Z,13.90
2018-05-14T07:43:51.110Z,13.90
2018-05-14T07:46:18.637Z,13.90
2018-05-14T07:48:46.162Z,13.90
2018-05-14T07:51:13.788Z,13.90
2018-05-14T07:53:41.293Z,13.90
2018-05-14T07:56:09.622Z,14.00
2018-05-14T07:58:37.117Z,14.00
2018-05-14T08:01:04.610Z,14.10
2018-05-14T08:03:32.134Z,14.20
2018-05-14T08:05:59.662Z,14.20
2018-05-14T08:08:27.139Z,14.50
2018-05-14T08:10:54.723Z,14.50
2018-05-14T08:13:22.233Z,14.60
2018-05-14T08:15:49.870Z,14.70
2018-05-14T08:18:17.362Z,14.90
2018-05-14T08:20:44.921Z,15.00
2018-05-14T08:23:12.414Z,15.20
2018-05-14T08:25:39.917Z,15.20
2018-05-14T08:28:07.503Z,15.50
2018-05-14T08:30:35.707Z,15.80
2018-05-14T08:33:03.470Z,15.80
2018-05-14T08:35:30.957Z,15.70
2018-05-14T08:37:58.464Z,15.90
2018-05-14T08:40:25.974Z,16.40
2018-05-14T08:42:53.532Z,16.80
2018-05-14T08:45:21.022Z,17.20
2018-05-14T08:47:48.552Z,17.60
2018-05-14T08:50:16.054Z,17.90
2018-05-14T08:52:43.590Z,17.90
2018-05-14T08:55:11.107Z,18.60
2018-05-14T08:57:39.489Z,19.40
2018-05-14T09:00:07.738Z,19.70
2018-05-14T09:02:36.072Z,19.80
2018-05-14T09:05:03.566Z,19.80
2018-05-14T09:07:31.038Z,20.20
2018-05-14T09:09:58.543Z,20.40
2018-05-14T09:12:26.078Z,20.60
2018-05-14T09:14:53.574Z,19.90
2018-05-14T09:17:21.388Z,19.90
2018-05-14T09:19:49.660Z,20.80
2018-05-14T09:22:17.150Z,20.80
2018-05-14T09:24:44.642Z,21.20
2018-05-14T09:27:12.129Z,21.20
2018-05-14T09:29:40.403Z,21.90
2018-05-14T09:32:08.867Z,21.50
2018-05-14T09:34:36.341Z,21.50
2018-05-14T09:37:03.828Z,21.80
2018-05-14T09:39:31.709Z,21.70
2018-05-14T09:41:59.199Z,21.80
2018-05-14T09:44:26.683Z,22.30
2018-05-14T09:46:55.215Z,22.90
2018-05-14T09:49:22.709Z,22.90
2018-05-14T09:51:50.179Z,23.10
2018-05-14T09:54:17.679Z,23.30
2018-05-14T09:56:45.185Z,23.30
2018-05-14T09:59:12.698Z,23.80
2018-05-14T10:01:40.221Z,23.80
2018-05-14T10:04:07.719Z,23.90
2018-05-14T10:06:35.266Z,23.90
2018-05-14T10:09:02.780Z,24.00
2018-05-14T10:11:31.071Z,23.50
2018-05-14T10:13:58.619Z,23.50
2018-05-14T10:16:26.932Z,24.30
2018-05-14T10:18:54.463Z,24.20
2018-05-14T10:21:21.967Z,24.70
2018-05-14T10:23:49.510Z,24.50
2018-05-14T10:26:18.227Z,24.80
2018-05-14T10:28:45.716Z,24.90
2018-05-14T10:31:14.493Z,24.80
2018-05-14T10:33:42.322Z,24.80
2018-05-14T10:36:09.821Z,24.70
2018-05-14T10:38:37.424Z,24.70
2018-05-14T10:41:04.906Z,25.00
2018-05-14T10:43:32.396Z,25.30
2018-05-14T10:45:59.950Z,25.00
2018-05-14T10:48:27.514Z,25.10
2018-05-14T10:50:55.853Z,24.80
2018-05-14T10:53:23.377Z,24.80
2018-05-14T10:55:50.880Z,24.80
2018-05-14T10:58:18.358Z,24.90
2018-05-14T11:00:45.870Z,24.90
2018-05-14T11:03:14.004Z,24.70
2018-05-14T11:05:42.258Z,24.90
2018-05-14T11:08:09.764Z,24.90
2018-05-14T11:10:37.307Z,24.60
2018-05-14T11:13:04.836Z,25.10
2018-05-14T11:15:32.334Z,25.10
2018-05-14T11:17:59.878Z,25.00
2018-05-14T11:20:28.293Z,25.20
2018-05-14T11:22:55.896Z,25.40
2018-05-14T11:25:24.181Z,24.80
2018-05-14T11:27:52.494Z,25.00
2018-05-14T11:30:20.674Z,25.10
2018-05-14T11:32:48.151Z,25.10
2018-05-14T11:35:15.685Z,25.20
2018-05-14T11:37:43.907Z,25.30
2018-05-14T11:40:11.647Z,25.30
2018-05-14T11:42:39.141Z,25.10
2018-05-14T11:45:07.399Z,24.80
2018-05-14T11:47:34.878Z,24.80
2018-05-14T11:50:03.119Z,24.60
2018-05-14T11:52:30.622Z,24.60
2018-05-14T11:54:58.116Z,25.20
2018-05-14T11:57:25.625Z,25.20
2018-05-14T11:59:54.208Z,24.90
2018-05-14T12:02:22.446Z,25.10
2018-05-14T12:04:50.019Z,25.10
2018-05-14T12:07:17.812Z,24.70
2018-05-14T12:09:45.299Z,24.80
2018-05-14T12:12:12.801Z,24.70
2018-05-14T12:14:40.702Z,25.00
2018-05-14T12:17:08.184Z,24.60
2018-05-14T12:19:35.662Z,24.60
2018-05-14T12:22:03.550Z,24.90
2018-05-14T12:24:31.031Z,25.00
2018-05-14T12:26:58.522Z,24.60
2018-05-14T12:29:26.027Z,24.60
2018-05-14T12:31:53.506Z,24.60
2018-05-14T12:34:21.791Z,24.80
2018-05-14T12:36:49.281Z,24.80
2018-05-14T12:39:16.758Z,24.70
2018-05-14T12:41:44.260Z,24.60
2018-05-14T12:44:11.931Z,24.90
2018-05-14T12:46:39.421Z,24.80
2018-05-14T12:49:06.926Z,24.90
2018-05-14T12:51:35.358Z,24.80
2018-05-14T12:54:02.899Z,24.80
2018-05-14T12:56:30.414Z,24.70
2018-05-14T12:58:58.214Z,24.80
2018-05-14T13:01:25.691Z,24.80
2018-05-14T13:03:53.183Z,24.90
2018-05-14T13:06:21.515Z,25.00
2018-05-14T13:08:49.009Z,25.00
2018-05-14T13:11:16.479Z,25.10
2018-05-14T13:13:44.749Z,25.20
2018-05-14T13:16:13.049Z,25.20
2018-05-14T13:18:40.545Z,25.30
2018-05-14T13:21:08.147Z,25.30
2018-05-14T13:23:35.627Z,25.00
2018-05-14T13:26:03.134Z,25.10
2018-05-14T13:28:30.641Z,25.20
2018-05-14T13:30:58.138Z,25.20
2018-05-14T13:33:25.636Z,25.20
2018-05-14T13:35:53.922Z,25.30
2018-05-14T13:38:21.512Z,25.30
2018-05-14T13:40:49.027Z,25.30
2018-05-14T13:43:16.523Z,25.30
2018-05-14T13:45:44.032Z,25.30
2018-05-14T13:48:11.515Z,25.20
2018-05-14T13:50:39.798Z,25.20
2018-05-14T13:53:07.298Z,25.20
2018-05-14T13:55:34.787Z,25.40
2018-05-14T13:58:02.272Z,25.50
2018-05-14T14:00:29.747Z,25.50
2018-05-14T14:02:57.252Z,25.50
2018-05-14T14:05:24.762Z,25.50
2018-05-14T14:07:52.298Z,25.40
2018-05-14T14:10:19.794Z,25.40
2018-05-14T14:12:47.329Z,25.40
2018-05-14T14:15:14.840Z,25.50
2018-05-14T14:17:42.324Z,25.50
2018-05-14T14:20:10.887Z,25.50
2018-05-14T14:22:39.139Z,25.40
2018-05-14T14:25:06.669Z,25.40
2018-05-14T14:27:34.501Z,25.30
2018-05-14T14:30:02.743Z,25.40
2018-05-14T14:32:30.242Z,25.50
2018-05-14T14:34:57.750Z,25.50
2018-05-14T14:37:25.240Z,25.50
2018-05-14T14:39:53.595Z,25.40
2018-05-14T14:42:21.262Z,25.40
2018-05-14T14:44:49.156Z,25.50
2018-05-14T14:47:17.422Z,25.60
2018-05-14T14:49:44.998Z,25.50
2018-05-14T14:52:12.490Z,25.50
2018-05-14T14:54:40.842Z,25.80
2018-05-14T14:57:08.334Z,25.80
2018-05-14T14:59:35.929Z,25.60
2018-05-14T15:02:03.442Z,25.70
2018-05-14T15:04:30.936Z,25.80
2018-05-14T15:06:58.462Z,25.70
2018-05-14T15:09:25.979Z,25.60
2018-05-14T15:11:53.898Z,25.50
2018-05-14T15:14:22.461Z,25.50
2018-05-14T15:16:50.779Z,25.40
2018-05-14T15:19:18.678Z,25.50
2018-05-14T15:21:46.171Z,25.50
2018-05-14T15:24:13.654Z,25.50
2018-05-14T15:26:41.582Z,25.40
2018-05-14T15:29:09.063Z,25.40
2018-05-14T15:31:36.555Z,25.50
2018-05-14T15:34:04.162Z,25.00
2018-05-14T15:36:31.627Z,25.50
2018-05-14T15:38:59.170Z,25.60
2018-05-14T15:41:27.239Z,25.60
2018-05-14T15:43:54.714Z,25.50
2018-05-14T15:46:22.198Z,25.50
2018-05-14T15:48:49.994Z,25.50
2018-05-14T15:51:17.527Z,25.50
2018-05-14T15:53:45.007Z,25.50
2018-05-14T15:56:13.633Z,25.60
2018-05-14T15:58:41.068Z,25.50
2018-05-14T16:01:08.959Z,25.60
2018-05-14T16:03:36.764Z,25.50
2018-05-14T16:06:04.426Z,25.50
2018-05-14T16:08:33.482Z,25.60
2018-05-14T16:11:01.055Z,25.50
2018-05-14T16:13:28.546Z,25.40
2018-05-14T16:15:56.787Z,25.40
2018-05-14T16:18:24.674Z,25.30
2018-05-14T16:20:52.143Z,25.20
2018-05-14T16:23:20.402Z,25.20
2018-05-14T16:25:48.119Z,25.20
2018-05-14T16:28:15.604Z,25.20
2018-05-14T16:30:43.086Z,25.20
2018-05-14T16:33:11.844Z,25.10
2018-05-14T16:35:39.275Z,25.10
2018-05-14T16:38:06.833Z,25.10
2018-05-14T16:40:34.722Z,25.10
2018-05-14T16:43:02.206Z,25.00
2018-05-14T16:45:30.786Z,25.00
2018-05-14T16:47:59.378Z,24.90
2018-05-14T16:50:27.080Z,24.90
2018-05-14T16:52:54.537Z,24.90
2018-05-14T16:55:23.530Z,24.90
2018-05-14T16:57:51.098Z,24.90
2018-05-14T17:00:18.679Z,24.80
2018-05-14T17:02:46.434Z,24.80
2018-05-14T17:05:13.943Z,24.80
2018-05-14T17:07:42.586Z,24.70
2018-05-14T17:10:10.486Z,24.60
2018-05-14T17:12:38.741Z,24.70
2018-05-14T17:15:06.536Z,24.60
2018-05-14T17:17:34.030Z,24.60
2018-05-14T17:20:01.490Z,24.50
2018-05-14T17:22:28.999Z,24.50
2018-05-14T17:24:57.578Z,23.80
2018-05-14T17:27:25.850Z,23.30
2018-05-14T17:29:54.101Z,22.80
2018-05-14T17:32:21.986Z,22.70
2018-05-14T17:34:49.540Z,22.50
2018-05-14T17:37:17.019Z,22.30
2018-05-14T17:39:44.769Z,22.20
2018-05-14T17:42:13.057Z,22.00
2018-05-14T17:44:40.558Z,22.00
2018-05-14T17:47:08.100Z,21.90
2018-05-14T17:49:35.623Z,21.90
2018-05-14T17:52:03.920Z,21.50
2018-05-14T17:54:31.422Z,21.50
2018-05-14T17:56:58.900Z,21.40
2018-05-14T17:59:27.228Z,21.10
2018-05-14T18:01:54.735Z,21.10
2018-05-14T18:04:22.253Z,21.10
2018-05-14T18:06:49.764Z,21.20
2018-05-14T18:09:17.277Z,21.20
2018-05-14T18:11:44.766Z,21.20
2018-05-14T18:14:12.277Z,21.20
2018-05-14T18:16:39.843Z,21.20
2018-05-14T18:19:07.364Z,21.20
2018-05-14T18:21:37.697Z,21.10
2018-05-14T18:24:05.241Z,20.90
2018-05-14T18:26:38.296Z,20.90
2018-05-14T18:29:05.813Z,20.80
2018-05-14T18:31:33.330Z,20.80
2018-05-14T18:34:06.662Z,20.80
2018-05-14T18:36:34.938Z,20.50
2018-05-14T18:39:02.469Z,20.50
2018-05-14T18:41:30.737Z,20.40
2018-05-14T18:43:58.251Z,20.40
2018-05-14T18:46:25.859Z,20.50
2018-05-14T18:48:53.456Z,20.40
2018-05-14T18:51:20.955Z,20.30
2018-05-14T18:53:48.474Z,20.40
2018-05-14T18:56:16.001Z,20.30
2018-05-14T18:58:44.622Z,20.10
2018-05-14T19:01:12.147Z,20.10
2018-05-14T19:03:39.781Z,20.10
2018-05-14T19:06:07.359Z,20.10
2018-05-14T19:08:34.894Z,20.10
2018-05-14T19:11:08.055Z,20.10
2018-05-14T19:13:50.713Z,20.00
2018-05-14T19:16:24.887Z,20.00
2018-05-14T19:18:52.372Z,19.90
2018-05-14T19:21:19.886Z,19.80
2018-05-14T19:23:53.401Z,19.70
2018-05-14T19:26:20.800Z,19.70
2018-05-14T19:28:53.968Z,19.70
2018-05-14T19:31:21.456Z,19.70
2018-05-14T19:33:55.148Z,19.60
2018-05-14T19:36:22.654Z,19.60
2018-05-14T19:38:50.165Z,19.60
2018-05-14T19:41:19.673Z,19.50
2018-05-14T19:43:51.779Z,19.60
2018-05-14T19:46:19.290Z,19.60
2018-05-14T19:48:47.567Z,19.70
2018-05-14T19:51:16.309Z,19.70
2018-05-14T19:53:43.856Z,19.70
2018-05-14T19:56:17.302Z,19.80
2018-05-14T19:58:45.199Z,19.80
2018-05-14T20:01:12.714Z,19.70
2018-05-14T20:03:40.334Z,19.80
2018-05-14T20:06:07.863Z,19.70
2018-05-14T20:08:35.342Z,19.70
2018-05-14T20:11:03.732Z,19.60
2018-05-14T20:13:32.029Z,19.60
2018-05-14T20:15:59.646Z,19.70
2018-05-14T20:18:27.881Z,19.80
2018-05-14T20:20:55.428Z,19.70
2018-05-14T20:23:22.930Z,18.90
2018-05-14T20:25:50.435Z,19.80
2018-05-14T20:28:17.971Z,19.70
2018-05-14T20:30:45.529Z,19.70
2018-05-14T20:33:13.180Z,19.60
2018-05-14T20:35:40.722Z,19.70
2018-05-14T20:38:08.403Z,19.70
2018-05-14T20:40:36.077Z,19.70
2018-05-14T20:43:03.706Z,19.60
2018-05-14T20:45:32.480Z,19.60
2018-05-14T20:48:00.551Z,19.60
2018-05-14T20:50:28.061Z,19.60
2018-05-14T20:52:56.445Z,19.60
2018-05-14T20:55:23.962Z,19.50
2018-05-14T20:57:52.646Z,19.50
2018-05-14T21:00:21.020Z,19.40
2018-05-14T21:02:49.034Z,19.30
2018-05-14T21:05:16.955Z,19.20
2018-05-14T21:07:44.605Z,19.20
2018-05-14T21:10:12.885Z,19.00
2018-05-14T21:12:41.207Z,19.00
2018-05-14T21:15:08.768Z,19.00
2018-05-14T21:17:36.302Z,18.90
2018-05-14T21:20:04.686Z,18.90
2018-05-14T21:22:32.170Z,18.80
2018-05-14T21:24:59.711Z,18.80
2018-05-14T21:27:27.261Z,18.80
2018-05-14T21:29:54.762Z,18.70
2018-05-14T21:32:29.955Z,18.70
2018-05-14T21:34:57.461Z,18.70
2018-05-14T21:37:25.003Z,18.70
2018-05-14T21:39:52.643Z,18.70
2018-05-14T21:42:20.139Z,18.70
2018-05-14T21:44:47.635Z,18.60
2018-05-14T21:47:15.453Z,18.70
2018-05-14T21:49:43.009Z,18.60
2018-05-14T21:52:10.500Z,18.50
2018-05-14T21:54:41.147Z,18.50
2018-05-14T21:57:08.815Z,18.50
2018-05-14T21:59:36.310Z,18.40
2018-05-14T22:02:04.153Z,18.40
2018-05-14T22:04:31.694Z,18.40
2018-05-14T22:06:59.238Z,18.30
2018-05-14T22:09:26.679Z,18.30
2018-05-14T22:11:54.249Z,18.30
2018-05-14T22:14:21.741Z,18.30
2018-05-14T22:16:50.052Z,18.30
2018-05-14T22:19:17.631Z,18.20
2018-05-14T22:21:45.895Z,18.10
2018-05-14T22:24:13.466Z,18.10
2018-05-14T22:26:41.774Z,18.00
2018-05-14T22:29:09.262Z,17.90
2018-05-14T22:31:36.790Z,17.90
2018-05-14T22:34:04.340Z,17.80
2018-05-14T22:36:32.071Z,17.70
2018-05-14T22:38:59.659Z,17.70
2018-05-14T22:41:28.017Z,17.60
2018-05-14T22:43:55.541Z,17.60
2018-05-14T22:46:23.058Z,17.60
2018-05-14T22:48:51.350Z,17.60
2018-05-14T22:51:18.848Z,17.50
2018-05-14T22:53:46.775Z,17.60
2018-05-14T22:56:14.309Z,17.50
2018-05-14T22:58:42.608Z,17.40
2018-05-14T23:01:10.500Z,17.40
2018-05-14T23:03:38.049Z,17.40
2018-05-14T23:06:05.563Z,17.30
2018-05-14T23:13:38.637Z,17.30
2018-05-14T23:16:08.164Z,17.20
2018-05-14T23:18:35.687Z,17.20
2018-05-14T23:21:03.317Z,17.20
2018-05-14T23:23:30.816Z,17.20
2018-05-14T23:25:58.318Z,17.10
2018-05-14T23:28:25.833Z,17.10
2018-05-14T23:30:53.350Z,17.00
2018-05-14T23:33:20.880Z,17.00
2018-05-14T23:35:48.659Z,17.00
2018-05-14T23:38:16.935Z,16.90
2018-05-14T23:40:44.433Z,16.90
2018-05-14T23:43:12.386Z,16.80
2018-05-14T23:45:39.903Z,16.80
2018-05-14T23:48:07.403Z,16.80
2018-05-14T23:50:35.194Z,16.70
2018-05-14T23:53:03.199Z,16.70
2018-05-14T23:55:30.688Z,16.70
2018-05-14T23:57:58.253Z,16.60
